• Join FlightAware (Why Join?)
  • Login
  • US Flag 
10:50PM EDT


 

Airport Tracker/Info


-or-


 

Live Flight TrackerFlight Track Log ✈ UAL1594 ✈ 04-Aug-2014 ✈ KBOS - KSFO

Flight Track Log - Related Links

Times and Time Zones

All times are in EDT time to prevent confusion due to time zone crossing. See the UAL1594 flight status page for this flight to view local times or setup timezone preferences in your user account.

Time Position Orientation Groundspeed Altitude Reporting Facility
EDT Latitude Longitude Course Direction KTS MPH feet Rate Location/Type
08:18PM 42.3100 -70.9109 82° East 277 319 3,600  Level FlightAware ADS-B (KBOS)
08:18PM 42.3107 -70.8987 89° East 284 327 3,800 2,880 Climbing FlightAware ADS-B (KBOS)
08:18PM 42.3095 -70.8554 95° East 280 322 5,100 3,180 Climbing FlightAware ADS-B (KBOS)
08:19PM 42.3092 -70.8217 93° East 282 325 6,100 2,700 Climbing FlightAware ADS-B (KASH)
08:19PM 42.3076 -70.7964 104° East 290 334 6,700 2,520 Climbing FlightAware ADS-B (KBOS)
08:19PM 42.3014 -70.7780 122° Southeast 292 336 7,200 2,820 Climbing FlightAware ADS-B (KBOS)
08:19PM 42.2917 -70.7635 138° Southeast 292 336 7,700 2,820 Climbing FlightAware ADS-B (KBOS)
08:19PM 42.2863 -70.7584 152° Southeast 293 337 8,100 2,820 Climbing FlightAware ADS-B (KBOS)
08:20PM 42.2678 -70.7498 170° South 290 334 8,600 2,520 Climbing FlightAware ADS-B (KBOS)
08:20PM 42.2549 -70.7500 181° South 289 333 9,000 2,700 Climbing FlightAware ADS-B (KASH)
08:20PM 42.2420 -70.7549 201° Southwest 285 328 9,500 3,000 Climbing FlightAware ADS-B (KBOS)
08:20PM 42.2348 -70.7601 210° Southwest 283 326 9,800 2,700 Climbing FlightAware ADS-B (KASH)
08:20PM 42.2225 -70.7756 232° Southwest 280 322 10,400 2,460 Climbing FlightAware ADS-B (KBOS)
08:21PM 42.2157 -70.7920 247° West 281 323 10,800 1,860 Climbing FlightAware ADS-B (KBOS)
08:21PM 42.2124 -70.8124 265° West 291 335 11,100 1,080 Climbing FlightAware ADS-B (KBOS)
08:21PM 42.2142 -70.8708 274° West 327 376 11,600 960 Climbing FlightAware ADS-B (KBOS)
08:22PM 42.2162 -70.9108 273° West 347 399 11,900 1,800 Climbing FlightAware ADS-B (KASH)
08:22PM 42.2195 -70.9799 274° West 358 412 13,100 1,980 Climbing FlightAware ADS-B (KBOS)
08:23PM 42.2226 -71.0469 274° West 371 427 14,000 1,980 Climbing FlightAware ADS-B (KBOS)
08:23PM 42.2258 -71.1197 273° West 376 433 15,200 2,220 Climbing FlightAware ADS-B (KBOS)
08:24PM 42.2288 -71.1908 273° West 380 437 16,300 2,160 Climbing FlightAware ADS-B (KBOS)
08:24PM 42.2319 -71.2628 273° West 384 442 17,400 2,040 Climbing FlightAware ADS-B (KBOS)
08:25PM 42.2350 -71.3361 273° West 389 448 18,400 1,980 Climbing FlightAware ADS-B (KASH)
08:25PM 42.2384 -71.4161 273° West 394 453 19,500 1,860 Climbing FlightAware ADS-B (KASH)
08:26PM 42.2413 -71.4910 273° West 399 459 20,400 1,620 Climbing FlightAware ADS-B (KASH)
08:26PM 42.2444 -71.5673 273° West 403 464 21,200 1,680 Climbing FlightAware ADS-B (KASH)
08:27PM 42.2488 -71.6796 273° West 407 468 22,500 1,680 Climbing FlightAware ADS-B (KASH)
08:27PM 42.2518 -71.7564 273° West 411 473 23,300 1,500 Climbing FlightAware ADS-B (KASH)
08:28PM 42.2547 -71.8327 273° West 416 479 24,000 1,500 Climbing FlightAware ADS-B (KASH)
08:28PM 42.2576 -71.9096 273° West 418 481 24,800 1,440 Climbing FlightAware ADS-B (KASH)
08:29PM 42.2618 -72.0271 273° West 423 487 25,800 1,200 Climbing FlightAware ADS-B (KASH)
08:30PM 42.2658 -72.1397 273° West 430 495 26,600 1,080 Climbing FlightAware ADS-B (KSNC)
08:30PM 42.2688 -72.2273 273° West 433 498 27,200 1,140 Climbing FlightAware ADS-B (KASH)
08:31PM 42.2716 -72.3127 273° West 433 498 28,000 1,320 Climbing FlightAware ADS-B (KSNC)
08:32PM 42.2754 -72.4280 273° West 429 494 28,900 1,620 Climbing FlightAware ADS-B (KASH)
08:32PM 42.2784 -72.5206 273° West 420 483 30,000 1,800 Climbing FlightAware ADS-B (KSNC)
08:33PM 42.2812 -72.6060 273° West 411 473 31,000 1,740 Climbing FlightAware ADS-B (KSNC)
08:33PM 42.2843 -72.7044 272° West 399 459 32,100 1,500 Climbing FlightAware ADS-B (KSNC)
08:34PM 42.2873 -72.8090 272° West 392 451 33,000 1,140 Climbing FlightAware ADS-B (KSNC)
08:35PM 42.2891 -72.8728 272° West 390 449 33,600 840 Climbing FlightAware ADS-B (KSNC)
08:35PM 42.2888 -72.9766 265° West 389 448 34,000 240 Climbing FlightAware ADS-B (KSNC)
08:36PM 42.2784 -73.0970 263° West 392 451 34,000  Level FlightAware ADS-B (KSNC)
08:37PM 42.2696 -73.1964 263° West 392 451 34,000  Level FlightAware ADS-B (KSNC)
08:37PM 42.2632 -73.2698 263° West 393 452 34,000  Level FlightAware ADS-B (KSNC)
08:38PM 42.2568 -73.3431 263° West 393 452 34,000  Level FlightAware ADS-B (KSNC)
08:38PM 42.2479 -73.4428 263° West 394 453 34,000  Level FlightAware ADS-B (KSNC)
08:39PM 42.2408 -73.5203 263° West 395 455 34,000  Level FlightAware ADS-B (KSNC)
08:40PM 42.2271 -73.6699 263° West 394 453 34,000  Level FlightAware ADS-B (CYOW)
08:41PM 42.2148 -73.8038 263° West 394 453 34,000  Level FlightAware ADS-B (KSNC)
08:45PM 42.1559 -74.3936 260° West 394 453 34,000  Level FlightAware ADS-B (KWWD)
08:45PM 42.1426 -74.4835 260° West 394 453 34,000  Level FlightAware ADS-B (KWWD)
08:46PM 42.1360 -74.5280 259° West 396 456 34,000  Level FlightAware ADS-B (KPEO)
08:47PM 42.1230 -74.6150 259° West 395 455 34,000  Level FlightAware ADS-B (KPEO)
08:47PM 42.1120 -74.6880 259° West 395 455 34,000  Level FlightAware ADS-B (KPEO)
08:48PM 42.0990 -74.7740 259° West 395 455 34,000  Level FlightAware ADS-B (KPEO)
08:48PM 42.0880 -74.8470 259° West 395 455 34,000  Level FlightAware ADS-B (KPEO)
08:49PM 42.0770 -74.9190 259° West 396 456 34,000  Level FlightAware ADS-B (KPEO)
08:49PM 42.0640 -75.0050 259° West 396 456 34,000  Level FlightAware ADS-B (KPEO)
08:50PM 42.0530 -75.0760 259° West 397 457 34,000  Level FlightAware ADS-B (KPEO)
08:50PM 42.0400 -75.1630 259° West 398 458 34,000  Level FlightAware ADS-B (KPEO)
08:50PM 42.0321 -75.2130 258° West 397 457 34,000  Level FlightAware ADS-B (KWWD)
08:51PM 42.0260 -75.2500 259° West 398 458 34,000  Level FlightAware ADS-B (KPEO)
08:52PM 42.0130 -75.3370 259° West 399 459 34,000  Level FlightAware ADS-B (KPEO)
08:52PM 41.9990 -75.4240 259° West 399 459 34,000  Level FlightAware ADS-B (KPEO)
08:53PM 41.9860 -75.5120 259° West 399 459 34,000  Level FlightAware ADS-B (KPEO)
08:53PM 41.9750 -75.5800 258° West 400 460 34,000  Level FlightAware ADS-B (KPEO)
08:54PM 41.9610 -75.6680 258° West 402 463 34,000  Level FlightAware ADS-B (KPEO)
08:54PM 41.9490 -75.7420 258° West 403 464 34,000  Level FlightAware ADS-B (KPEO)
08:55PM 41.9350 -75.8310 258° West 404 465 34,000  Level FlightAware ADS-B (KPEO)
08:56PM 41.9200 -75.9210 258° West 407 468 34,000  Level FlightAware ADS-B (KPEO)
08:56PM 41.9070 -76.0060 258° West 408 470 34,000  Level FlightAware ADS-B (KPEO)
08:56PM 41.9017 -76.0352 258° West 408 470 34,000  Level FlightAware ADS-B (CYYZ)
08:57PM 41.8940 -76.0820 258° West 410 472 34,000  Level FlightAware ADS-B (KPEO)
08:57PM 41.8896 -76.1094 258° West 410 472 34,000  Level FlightAware ADS-B (CYYZ)
08:57PM 41.8800 -76.1670 258° West 411 473 34,000  Level FlightAware ADS-B (KPEO)
08:58PM 41.8718 -76.2182 258° West 411 473 34,000  Level FlightAware ADS-B (CYYZ)
08:58PM 41.8527 -76.3337 258° West 412 474 34,000  Level FlightAware ADS-B (CYYZ)
08:58PM 41.8500 -76.3510 258° West 413 475 34,000  Level FlightAware ADS-B (KPEO)
08:59PM 41.8405 -76.4076 258° West 414 476 34,000  Level FlightAware ADS-B (CYYZ)
08:59PM 41.8370 -76.4270 258° West 416 479 34,000  Level FlightAware ADS-B (KPEO)
09:00PM 41.8220 -76.5170 258° West 419 482 34,000  Level FlightAware ADS-B (KPEO)
09:00PM 41.8219 -76.5193 258° West 418 481 34,000  Level FlightAware ADS-B (CYYZ)
09:00PM 41.8070 -76.6080 258° West 420 483 34,000  Level FlightAware ADS-B (KPEO)
09:00PM 41.8024 -76.6361 258° West 420 483 34,000  Level FlightAware ADS-B (CYYZ)
09:01PM 41.7940 -76.6840 258° West 421 484 34,000  Level FlightAware ADS-B (KPEO)
09:01PM 41.7832 -76.7490 258° West 422 486 34,000  Level FlightAware ADS-B (CYYZ)
09:01PM 41.7810 -76.7590 258° West 423 487 34,000  Level FlightAware ADS-B (KPEO)
09:01PM 41.7706 -76.8237 258° West 423 487 34,000  Level FlightAware ADS-B (KWWD)
09:02PM 41.7680 -76.8370 258° West 425 489 34,000  Level FlightAware ADS-B (KPEO)
09:02PM 41.7631 -76.8674 258° West 424 488 34,000  Level FlightAware ADS-B (CYYZ)
09:02PM 41.7530 -76.9280 257° West 425 489 34,000  Level FlightAware ADS-B (KPEO)
09:03PM 41.7435 -76.9817 258° West 425 489 34,000  Level FlightAware ADS-B (CYYZ)
09:03PM 41.7370 -77.0200 257° West 428 493 34,000  Level FlightAware ADS-B (KPEO)
09:03PM 41.7236 -77.0979 258° West 428 493 34,000  Level FlightAware ADS-B (CYYZ)
09:03PM 41.7210 -77.1130 257° West 430 495 34,000  Level FlightAware ADS-B (KPEO)
09:04PM 41.7050 -77.2070 257° West 432 497 34,000  Level FlightAware ADS-B (KPEO)
09:04PM 41.7030 -77.2158 257° West 431 496 34,000  Level FlightAware ADS-B (CYYZ)
09:05PM 41.6892 -77.2939 257° West 432 497 34,000  Level FlightAware ADS-B (CYYZ)
09:05PM 41.6880 -77.3010 257° West 433 498 34,000  Level FlightAware ADS-B (KPEO)
09:05PM 41.6720 -77.3940 258° West 434 499 34,000  Level FlightAware ADS-B (KPEO)
09:05PM 41.6699 -77.4092 258° West 433 498 34,000  Level FlightAware ADS-B (CYYZ)
09:06PM 41.6570 -77.4890 257° West 435 501 34,000  Level FlightAware ADS-B (KPEO)
09:06PM 41.6496 -77.5290 257° West 433 498 34,000  Level FlightAware ADS-B (CYYZ)
09:06PM 41.6430 -77.5660 257° West 434 499 34,000  Level FlightAware ADS-B (KPEO)
09:07PM 41.6360 -77.6048 257° West 433 498 34,000  Level FlightAware ADS-B (CYYZ)
09:07PM 41.6290 -77.6430 257° West 434 499 34,000  Level FlightAware ADS-B (KPEO)
09:07PM 41.6240 -77.6910 267° West 434 499 34,000  Level FlightAware ADS-B (KPEO)
09:07PM 41.6240 -77.7213 272° West 434 499 34,000 300 Level FlightAware ADS-B (CYYZ)
09:07PM 41.6250 -77.7390 277° West 433 498 34,100 1,500 Climbing FlightAware ADS-B (KPEO)
09:08PM 41.6306 -77.8008 277° West 426 490 34,800 1,500 Climbing FlightAware ADS-B (CYYZ)
09:08PM 41.6330 -77.8340 277° West 425 489 35,000 1,020 Climbing FlightAware ADS-B (KPEO)
09:08PM 41.6371 -77.8821 276° West 422 486 35,300 780 Climbing FlightAware ADS-B (CYYZ)
09:09PM 41.6410 -77.9270 276° West 423 487 35,500 720 Climbing FlightAware ADS-B (KPEO)
09:09PM 41.6428 -77.9560 276° West 421 484 35,700 780 Climbing FlightAware ADS-B (CYYZ)
09:09PM 41.6460 -78.0020 276° West 422 486 35,900 360 Climbing FlightAware ADS-B (KPEO)
09:10PM 41.6520 -78.0750 276° West 423 487 36,000 120 Climbing FlightAware ADS-B (CYYZ)
09:10PM 41.6604 -78.1768 277° West 425 489 36,000  Level FlightAware ADS-B (KWWD)
09:10PM 41.6620 -78.1953 277° West 424 488 36,000  Level FlightAware ADS-B (CYYZ)
09:11PM 41.6718 -78.3115 277° West 426 490 36,000  Level FlightAware ADS-B (CYYZ)
09:12PM 41.6785 -78.3919 277° West 428 493 36,000  Level FlightAware ADS-B (CYYZ)
09:12PM 41.6847 -78.4673 277° West 428 493 36,000  Level FlightAware ADS-B (CYYZ)
09:12PM 41.6931 -78.5712 275° West 428 493 36,000  Level FlightAware ADS-B (KWWD)
09:13PM 41.6945 -78.5885 277° West 428 493 36,000  Level FlightAware ADS-B (CYYZ)
09:13PM 41.6996 -78.6532 275° West 428 493 36,000  Level FlightAware ADS-B (KWWD)
09:14PM 41.7039 -78.7083 276° West 430 495 36,000  Level FlightAware ADS-B (CYYZ)
09:14PM 41.7101 -78.7879 277° West 429 494 36,000  Level FlightAware ADS-B (CYYZ)
09:15PM 41.7164 -78.8678 276° West 429 494 36,000  Level FlightAware ADS-B (CYYZ)
09:15PM 41.7256 -78.9861 276° West 427 491 36,000  Level FlightAware ADS-B (CYYZ)
09:16PM 41.7342 -79.0996 276° West 426 490 36,000  Level FlightAware ADS-B (CYYZ)
09:17PM 41.7435 -79.2232 276° West 426 490 36,000  Level FlightAware ADS-B (CYYZ)
09:18PM 41.7522 -79.3411 276° West 426 490 36,000  Level FlightAware ADS-B (CYYZ)
09:18PM 41.7608 -79.4584 276° West 427 491 36,000  Level FlightAware ADS-B (CYYZ)
09:19PM 41.7694 -79.5776 276° West 429 494 36,000  Level FlightAware ADS-B (CYYZ)
09:20PM 41.7751 -79.6571 276° West 430 495 36,000  Level FlightAware ADS-B (CYYZ)
09:20PM 41.7807 -79.7372 276° West 431 496 36,000  Level FlightAware ADS-B (CYYZ)
09:21PM 41.7891 -79.8576 276° West 434 499 36,000  Level FlightAware ADS-B (CYYZ)
09:22PM 41.7973 -79.9791 276° West 437 503 36,000  Level FlightAware ADS-B (CYYZ)
09:22PM 41.8056 -80.1003 276° West 440 506 36,000  Level FlightAware ADS-B (CYYZ)
09:23PM 41.8108 -80.1806 275° West 441 507 36,000  Level FlightAware ADS-B (CYYZ)
09:24PM 41.8188 -80.3021 276° West 441 507 36,000  Level FlightAware ADS-B (CYYZ)
09:24PM 41.8270 -80.4275 275° West 440 506 36,000  Level FlightAware ADS-B (CYYZ)
09:25PM 41.8320 -80.5065 275° West 440 506 36,000  Level FlightAware ADS-B (CYYZ)
09:26PM 41.8397 -80.6322 275° West 440 506 36,000  Level FlightAware ADS-B (CYYZ)
09:26PM 41.8474 -80.7544 275° West 440 506 36,000  Level FlightAware ADS-B (CYYZ)
09:27PM 41.8545 -80.8732 275° West 440 506 36,000  Level FlightAware ADS-B (CYYZ)
09:28PM 41.8615 -80.9894 275° West 440 506 36,000  Level FlightAware ADS-B (CYYZ)
09:29PM 41.8626 -81.0084 275° West 437 503 36,000  Level FlightAware ADS-B (CYYZ)
09:33PM 41.9077 -81.8244 275° West 431 496 36,000  Level FlightAware ADS-B (CYYZ)
09:35PM 41.9193 -82.0534 274° West 429 494 36,000  Level FlightAware ADS-B (CYYZ)
09:35PM 41.9246 -82.1604 274° West 431 496 36,000  Level FlightAware ADS-B (CYYZ)
09:36PM 41.9261 -82.1895 274° West 433 498 36,000  Level FlightAware ADS-B (CYYZ)
09:36PM 41.9337 -82.3521 274° West 434 499 36,000  Level FlightAware ADS-B (CYYZ)
09:37PM 41.9380 -82.4449 274° West 435 501 36,000  Level FlightAware ADS-B (CYYZ)
09:38PM 41.9431 -82.5551 274° West 439 505 36,000  Level FlightAware ADS-B (CYYZ)
09:38PM 41.9447 -82.5907 274° West 439 505 36,000  Level FlightAware ADS-B (CYYZ)
09:39PM 41.9539 -82.7971 274° West 441 507 36,000  Level FlightAware ADS-B (CYYZ)
09:41PM 41.9651 -83.0623 274° West 437 503 36,000  Level FlightAware ADS-B (CYYZ)
09:41PM 41.9681 -83.1401 273° West 435 501 36,000  Level FlightAware ADS-B (CYYZ)
09:42PM 41.9731 -83.2628 274° West 431 496 36,000  Level FlightAware ADS-B (CYYZ)
09:43PM 41.9749 -83.3492 259° West 437 503 36,000  Level FlightAware ADS-B (CYYZ)
09:43PM 41.9595 -83.4516 257° West 439 505 36,000  Level FlightAware ADS-B
09:43PM 41.9510 -83.5020 258° West 439 505 36,000  Level FlightAware ADS-B (CYYZ)
09:44PM 41.9321 -83.6128 257° West 439 505 36,000  Level FlightAware ADS-B
09:45PM 41.9067 -83.7615 257° West 438 504 36,000  Level FlightAware ADS-B
09:47PM 41.8512 -84.0894 257° West 435 501 36,000  Level FlightAware ADS-B (KMDW)
09:48PM 41.8369 -84.1728 257° West 435 501 36,000  Level FlightAware ADS-B (KMDW)
09:48PM 41.8153 -84.2964 257° West 434 499 36,000  Level FlightAware ADS-B (KMDW)
09:50PM 41.7733 -84.5459 258° West 433 498 36,000  Level FlightAware ADS-B (KMDW)
09:51PM 41.7606 -84.6248 258° West 434 499 36,000  Level FlightAware ADS-B (KMDW)
09:53PM 41.7052 -84.9392 250° West 439 505 36,000  Level FlightAware ADS-B (KMDW)
09:54PM 41.6575 -85.1371 254° West 437 503 36,000  Level FlightAware ADS-B (KMDW)
09:55PM 41.6313 -85.2548 253° West 435 501 36,000  Level FlightAware ADS-B (KMDW)
09:55PM 41.6140 -85.3327 254° West 433 498 36,000  Level FlightAware ADS-B (KMDW)
09:56PM 41.5968 -85.4100 253° West 432 497 36,000  Level FlightAware ADS-B (KMDW)
09:56PM 41.5728 -85.5136 253° West 429 494 36,000  Level FlightAware ADS-B (KMDW)
09:57PM 41.5544 -85.5929 253° West 429 494 36,000  Level FlightAware ADS-B (KMDW)
09:57PM 41.5378 -85.6656 253° West 430 495 36,000  Level FlightAware ADS-B (KMDW)
09:58PM 41.5167 -85.7577 253° West 431 496 36,000  Level FlightAware ADS-B (KMDW)
09:58PM 41.4971 -85.8437 253° West 433 498 36,000  Level FlightAware ADS-B (KMDW)
09:59PM 41.4772 -85.9332 254° West 431 496 36,000  Level FlightAware ADS-B (KMDW)
10:00PM 41.4487 -86.0606 253° West 427 491 36,000  Level FlightAware ADS-B (KMDW)
10:01PM 41.4265 -86.1608 254° West 421 484 36,000  Level FlightAware ADS-B (KMDW)
10:02PM 41.3927 -86.3215 255° West 423 487 36,000  Level FlightAware ADS-B (KMDW)
10:02PM 41.3713 -86.4301 256° West 425 489 36,000  Level FlightAware ADS-B (KMDW)
10:03PM 41.3535 -86.5263 256° West 427 491 36,000  Level FlightAware ADS-B (KMDW)
10:03PM 41.3389 -86.6022 255° West 429 494 36,000  Level FlightAware ADS-B (KMDW)
10:04PM 41.3158 -86.7127 255° West 430 495 36,000  Level FlightAware ADS-B
10:05PM 41.3010 -86.7886 256° West 429 494 36,000  Level FlightAware ADS-B
10:06PM 41.2706 -86.9478 256° West 429 494 36,000 -420 Level FlightAware ADS-B (KPWK)
10:07PM 41.2487 -87.0689 257° West 430 495 35,300 -960 Descending FlightAware ADS-B (KPWK)
10:07PM 41.2421 -87.1067 257° West 434 499 34,800 -900 Descending FlightAware ADS-B
10:08PM 41.2228 -87.2148 255° West 434 499 34,400 -840 Descending FlightAware ADS-B
10:08PM 41.2113 -87.2634 249° West 436 502 34,000 -420 Descending FlightAware ADS-B
10:09PM 41.1755 -87.3766 254° West 436 502 34,000  Level FlightAware ADS-B
10:09PM 41.1707 -87.4103 266° West 429 494 34,000  Level FlightAware ADS-B
10:09PM 41.1695 -87.4318 266° West 429 494 34,000  Level FlightAware ADS-B
10:10PM 41.1721 -87.5296 272° West 428 493 34,000  Level FlightAware ADS-B (KMDW)
10:10PM 41.1742 -87.6055 272° West 429 494 34,000  Level FlightAware ADS-B (KMDW)
10:11PM 41.1773 -87.7158 272° West 431 496 34,000  Level FlightAware ADS-B (KMDW)
10:11PM 41.1793 -87.7922 272° West 431 496 34,000  Level FlightAware ADS-B (KMDW)
10:12PM 41.1816 -87.8755 272° West 431 496 34,000  Level FlightAware ADS-B (KMDW)
10:12PM 41.1838 -87.9637 272° West 428 493 34,000  Level FlightAware ADS-B (KMDW)
10:13PM 41.1858 -88.0441 272° West 425 489 34,000  Level FlightAware ADS-B (KMDW)
10:13PM 41.1878 -88.1283 272° West 424 488 34,000  Level FlightAware ADS-B (KMDW)
10:14PM 41.1897 -88.2127 272° West 423 487 34,000  Level FlightAware ADS-B (KMDW)
10:14PM 41.1910 -88.2676 272° West 422 486 34,000  Level FlightAware ADS-B (KMDW)
10:15PM 41.1940 -88.3968 272° West 421 484 34,000  Level FlightAware ADS-B (KPWK)
10:16PM 41.1957 -88.4828 272° West 420 483 34,000  Level FlightAware ADS-B (KMDW)
10:16PM 41.1951 -88.4530 272° West 419 482 34,000  Level FlightAware ADS-B (KPWK)
10:17PM 41.1995 -88.6749 272° West 421 484 34,000  Level FlightAware ADS-B (KPWK)
10:17PM 41.2010 -88.7517 272° West 422 486 34,000  Level FlightAware ADS-B (KMDW)
10:18PM 41.2026 -88.8422 271° West 422 486 34,000  Level FlightAware ADS-B (KMDW)
10:19PM 41.2045 -88.9467 271° West 423 487 34,000 720 Level FlightAware ADS-B (KMDW)
10:19PM 41.2060 -89.0443 271° West 414 476 35,000 780 Climbing FlightAware ADS-B (KPWK)
10:20PM 41.2079 -89.1538 272° West 415 478 35,200 420 Climbing FlightAware ADS-B (KPWK)
10:21PM 41.2089 -89.2271 271° West 424 488 35,600 540 Climbing FlightAware ADS-B (KPWK)
10:21PM 41.2106 -89.3809 271° West 423 487 36,000 240 Climbing FlightAware ADS-B (KPWK)
10:22PM 41.2110 -89.4173 271° West 420 483 36,000  Level FlightAware ADS-B (KPWK)
10:23PM 41.2039 -89.6725 250° West 437 503 36,000  Level FlightAware ADS-B (KMDW)
10:24PM 41.1747 -89.7690 248° West 442 509 36,000  Level FlightAware ADS-B (KPWK)
10:26PM 41.0959 -90.0191 246° West 444 511 36,000  Level FlightAware ADS-B (KPWK)
10:26PM 41.0742 -90.0838 246° West 444 511 36,000  Level FlightAware ADS-B (KPWK)
10:27PM 41.0425 -90.1839 247° West 443 510 36,000  Level FlightAware ADS-B (KPWK)
10:28PM 41.0121 -90.2782 247° West 446 513 36,000  Level FlightAware ADS-B (KPWK)
10:29PM 40.9408 -90.4938 246° West 450 518 36,000  Level FlightAware ADS-B (KPWK)
10:30PM 40.8965 -90.6250 246° West 454 522 36,000  Level FlightAware ADS-B (KPWK)
10:31PM 40.8231 -90.8494 247° West 454 522 36,000  Level FlightAware ADS-B (KPWK)
10:32PM 40.7922 -90.9406 247° West 456 525 36,000  Level Chicago Center
10:33PM 40.7611 -91.0925 255° West 440 506 36,000  Level Chicago Center
10:34PM 40.7617 -91.2486 270° West 430 495 36,000  Level Chicago Center
10:35PM 40.7631 -91.4025 271° West 430 495 36,000  Level Chicago Center
10:36PM 40.7658 -91.5575 271° West 430 495 36,000  Level Chicago Center
10:41PM 40.7700 -92.2399 270° West 413 475 36,000  Level FlightAware ADS-B (KCID)
10:44PM 40.7710 -92.7572 270° West 413 475 36,000  Level FlightAware ADS-B (KCID)
10:48PM 40.7694 -93.3888 270° West 432 497 36,000  Level FlightAware ADS-B (KFOD)
10:49PM 40.7687 -93.5034 269° West 434 499 36,000  Level FlightAware ADS-B (KFOD)
10:49PM 40.7677 -93.6186 270° West 436 502 36,000  Level FlightAware ADS-B (KFOD)
10:50PM 40.7669 -93.7375 269° West 436 502 36,000  Level FlightAware ADS-B (KFOD)
10:51PM 40.7659 -93.8415 269° West 435 501 36,000  Level FlightAware ADS-B (KFOD)
10:53PM 40.7623 -94.1882 269° West 433 498 36,000  Level FlightAware ADS-B (KFOD)
10:54PM 40.7590 -94.4208 269° West 430 495 36,000  Level FlightAware ADS-B (KFOD)
10:55PM 40.7565 -94.5889 269° West 428 493 36,000  Level FlightAware ADS-B (KFOD)
10:56PM 40.7554 -94.6586 1000° North 36,000  Level FlightAware ADS-B
10:56PM 40.7553 -94.6664 269° West 428 493 36,000  Level FlightAware ADS-B
10:56PM 40.7539 -94.7457 269° West 428 493 36,000  Level FlightAware ADS-B
10:57PM 40.7533 -94.7801 269° West 428 493 36,000  Level FlightAware ADS-B (KFOD)
10:57PM 40.7524 -94.8379 269° West 428 493 36,000  Level FlightAware ADS-B
10:57PM 40.7516 -94.8819 269° West 428 493 36,000  Level FlightAware ADS-B (KFOD)
10:58PM 40.7506 -94.9341 269° West 428 493 36,000  Level FlightAware ADS-B
10:58PM 40.7487 -95.0295 269° West 426 490 36,000  Level FlightAware ADS-B
10:59PM 40.7470 -95.1158 268° West 426 490 36,000  Level FlightAware ADS-B
11:00PM 40.7411 -95.3852 268° West 431 496 36,000  Level FlightAware ADS-B (KFOD)
11:01PM 40.7388 -95.4847 268° West 432 497 36,000  Level FlightAware ADS-B
11:02PM 40.7369 -95.5660 268° West 434 499 36,000  Level FlightAware ADS-B
11:02PM 40.7362 -95.5950 268° West 434 499 36,000  Level FlightAware ADS-B (KFOD)
11:02PM 40.7350 -95.6449 268° West 434 499 36,000  Level FlightAware ADS-B
11:03PM 40.7329 -95.7259 268° West 434 499 36,000  Level FlightAware ADS-B
11:03PM 40.7308 -95.8057 268° West 435 501 36,000  Level FlightAware ADS-B
11:04PM 40.7287 -95.8865 268° West 435 501 36,000  Level FlightAware ADS-B
11:04PM 40.7265 -95.9661 268° West 435 501 36,000  Level FlightAware ADS-B
11:05PM 40.7242 -96.0468 268° West 436 502 36,000  Level FlightAware ADS-B
11:05PM 40.7218 -96.1310 268° West 436 502 36,000  Level FlightAware ADS-B
11:06PM 40.7191 -96.2233 268° West 437 503 36,000  Level FlightAware ADS-B
11:07PM 40.7150 -96.3278 268° West 435 501 36,000  Level Minneapolis Center
11:08PM 40.7094 -96.4889 267° West 436 502 36,000  Level Minneapolis Center
11:09PM 40.7044 -96.6503 268° West 436 502 36,000  Level Minneapolis Center
11:10PM 40.6994 -96.8097 268° West 436 502 36,000  Level Minneapolis Center
11:11PM 40.6931 -96.9669 267° West 434 499 36,000  Level Minneapolis Center
11:12PM 40.6875 -97.1247 267° West 434 499 36,000  Level Minneapolis Center
11:13PM 40.6811 -97.2836 267° West 434 499 36,000  Level Minneapolis Center
11:14PM 40.6728 -97.4600 266° West 432 497 36,000  Level Minneapolis Center
11:15PM 40.6683 -97.6153 268° West 428 493 36,000  Level Minneapolis Center
11:16PM 40.6608 -97.7731 266° West 428 493 36,000  Level Minneapolis Center
11:17PM 40.6533 -97.9294 266° West 428 493 36,000  Level Minneapolis Center
11:18PM 40.6464 -98.0872 267° West 428 493 36,000  Level Minneapolis Center
11:19PM 40.6389 -98.2450 266° West 428 493 36,000  Level Minneapolis Center
11:20PM 40.6317 -98.4044 267° West 429 494 36,000  Level Minneapolis Center
11:21PM 40.6239 -98.5625 266° West 429 494 36,000  Level Minneapolis Center
11:22PM 40.6131 -98.7522 266° West 429 494 36,000  Level Minneapolis Center
11:23PM 40.6064 -98.9089 267° West 429 494 36,000  Level Minneapolis Center
11:24PM 40.5975 -99.0653 266° West 429 494 36,000  Level Minneapolis Center
11:25PM 40.5886 -99.2236 266° West 429 494 36,000  Level Minneapolis Center
11:26PM 40.5806 -99.3814 266° West 429 494 36,000  Level Minneapolis Center
11:27PM 40.5708 -99.5406 265° West 430 495 36,000  Level Minneapolis Center
11:28PM 40.5619 -99.6992 266° West 431 496 36,000 240 Level Minneapolis Center
11:33PM 40.4880 -100.5145 266° West 420 483 37,600 300 Climbing FlightAware ADS-B (KEIK)
11:34PM 40.4822 -100.6053 265° West 419 482 38,000 240 Climbing FlightAware ADS-B (KEIK)
11:34PM 40.4743 -100.7226 265° West 422 486 38,000  Level FlightAware ADS-B (KEIK)
11:35PM 40.4684 -100.8069 265° West 424 488 38,000  Level FlightAware ADS-B (KEIK)
11:36PM 40.4576 -100.9609 265° West 425 489 38,000  Level FlightAware ADS-B (KEIK)
11:37PM 40.4483 -101.0921 265° West 426 490 38,000  Level FlightAware ADS-B (KEIK)
11:37PM 40.4410 -101.1943 265° West 426 490 38,000  Level FlightAware ADS-B (KEIK)
11:38PM 40.4355 -101.2702 265° West 426 490 38,000  Level FlightAware ADS-B (KEIK)
11:39PM 40.4274 -101.3798 265° West 426 490 38,000  Level FlightAware ADS-B (KEIK)
11:40PM 40.4177 -101.5117 265° West 426 490 38,000  Level FlightAware ADS-B (KEIK)
11:40PM 40.4100 -101.6150 264° West 426 490 38,000  Level FlightAware ADS-B (KEIK)
11:41PM 40.4022 -101.7164 264° West 426 490 38,000  Level FlightAware ADS-B (KEIK)
11:42PM 40.3943 -101.8180 264° West 425 489 38,000  Level FlightAware ADS-B (KEIK)
11:42PM 40.3863 -101.9205 264° West 424 488 38,000  Level FlightAware ADS-B (KEIK)
11:43PM 40.3790 -102.0139 264° West 424 488 38,000  Level FlightAware ADS-B (KANK)
11:43PM 40.3720 -102.1024 264° West 423 487 38,000  Level FlightAware ADS-B (KANK)
11:44PM 40.3660 -102.1760 264° West 423 487 38,000  Level FlightAware ADS-B (KEIK)
11:45PM 40.3578 -102.2775 264° West 422 486 38,000  Level FlightAware ADS-B (KANK)
11:45PM 40.3508 -102.3623 264° West 423 487 38,000  Level FlightAware ADS-B (KEIK)
11:46PM 40.3444 -102.4399 264° West 421 484 38,000  Level FlightAware ADS-B (KEIK)
11:46PM 40.3377 -102.5194 264° West 422 486 38,000  Level FlightAware ADS-B (KEIK)
11:47PM 40.3314 -102.5950 264° West 421 484 38,000  Level FlightAware ADS-B (KEIK)
11:47PM 40.3238 -102.6838 264° West 421 484 38,000  Level FlightAware ADS-B (KANK)
11:48PM 40.3165 -102.7700 264° West 421 484 38,000  Level FlightAware ADS-B (KANK)
11:48PM 40.3080 -102.8695 264° West 419 482 38,000  Level FlightAware ADS-B (KEIK)
11:49PM 40.3014 -102.9446 264° West 417 480 38,000  Level FlightAware ADS-B (KEIK)
11:49PM 40.2952 -103.0153 263° West 417 480 38,000  Level FlightAware ADS-B (KEIK)
11:50PM 40.2865 -103.1138 263° West 416 479 38,000  Level FlightAware ADS-B (KANK)
11:51PM 40.2790 -103.1974 263° West 415 478 38,000  Level FlightAware ADS-B (KANK)
11:51PM 40.2715 -103.2802 263° West 416 479 38,000  Level FlightAware ADS-B (KEIK)
11:52PM 40.2646 -103.3558 263° West 417 480 38,000  Level FlightAware ADS-B (KEIK)
11:52PM 40.2577 -103.4319 263° West 416 479 38,000  Level FlightAware ADS-B (KEIK)
11:53PM 40.2510 -103.5050 263° West 416 479 38,000  Level FlightAware ADS-B (KEIK)
11:53PM 40.2415 -103.6058 263° West 417 480 38,000  Level FlightAware ADS-B (KEIK)
11:54PM 40.2345 -103.6806 263° West 419 482 38,000  Level FlightAware ADS-B (KANK)
11:54PM 40.2275 -103.7551 263° West 422 486 38,000  Level FlightAware ADS-B (KEIK)
11:55PM 40.2179 -103.8565 263° West 426 490 38,000  Level FlightAware ADS-B (KEIK)
11:56PM 40.2098 -103.9410 263° West 427 491 38,000  Level FlightAware ADS-B (KANK)
11:56PM 40.2000 -104.0409 263° West 431 496 38,000  Level FlightAware ADS-B (KEIK)
11:57PM 40.1899 -104.1456 263° West 434 499 38,000  Level FlightAware ADS-B (KEIK)
11:57PM 40.1824 -104.2207 263° West 436 502 38,000  Level FlightAware ADS-B (KEIK)
11:58PM 40.1736 -104.3115 263° West 437 503 38,000  Level FlightAware ADS-B (KANK)
11:59PM 40.1639 -104.4084 263° West 435 501 38,000  Level FlightAware ADS-B (KEIK)
11:59PM 40.1561 -104.4856 262° West 433 498 38,000  Level FlightAware ADS-B (KEIK)
12:00AM 40.1483 -104.5618 262° West 432 497 38,000  Level FlightAware ADS-B (KEIK)
12:00AM 40.1394 -104.6477 262° West 433 498 38,000  Level FlightAware ADS-B (KANK)
12:01AM 40.1318 -104.7211 262° West 433 498 38,000  Level FlightAware ADS-B (KANK)
12:01AM 40.1217 -104.8177 262° West 435 501 38,000  Level FlightAware ADS-B (KEIK)
12:02AM 40.1126 -104.9077 262° West 434 499 38,000  Level FlightAware ADS-B (KANK)
12:02AM 40.1033 -104.9970 262° West 431 496 38,000  Level FlightAware ADS-B (KANK)
12:03AM 40.0954 -105.0702 262° West 429 494 38,000  Level FlightAware ADS-B (KANK)
12:03AM 40.0871 -105.1487 262° West 430 495 38,000  Level FlightAware ADS-B (KANK)
12:04AM 40.0785 -105.2290 262° West 429 494 38,000  Level FlightAware ADS-B (KANK)
12:04AM 40.0694 -105.3132 262° West 430 495 38,000  Level FlightAware ADS-B (KEIK)
12:05AM 40.0604 -105.3959 262° West 431 496 38,000  Level FlightAware ADS-B (KAPA)
12:05AM 40.0526 -105.4664 262° West 433 498 38,000  Level FlightAware ADS-B (KANK)
12:06AM 40.0432 -105.5510 262° West 434 499 38,000  Level FlightAware ADS-B (KAPA)
12:07AM 40.0339 -105.6334 262° West 436 502 38,000  Level FlightAware ADS-B (KANK)
12:07AM 40.0235 -105.7266 262° West 436 502 38,000  Level FlightAware ADS-B (KEIK)
12:08AM 40.0155 -105.7982 262° West 438 504 38,000  Level FlightAware ADS-B (KANK)
12:08AM 40.0061 -105.8824 262° West 439 505 38,000  Level FlightAware ADS-B (KANK)
12:09AM 39.9968 -105.9641 262° West 440 506 38,000  Level FlightAware ADS-B (KEIK)
12:09AM 39.9859 -106.0596 262° West 440 506 38,000  Level FlightAware ADS-B (KANK)
12:10AM 39.9766 -106.1392 261° West 438 504 38,000  Level FlightAware ADS-B (KEIK)
12:10AM 39.9647 -106.2401 261° West 435 501 38,000  Level FlightAware ADS-B (KGJT)
12:11AM 39.9543 -106.3298 261° West 434 499 38,000  Level FlightAware ADS-B (KANK)
12:12AM 39.9441 -106.4153 261° West 434 499 38,000  Level FlightAware ADS-B (KEIK)
12:12AM 39.9321 -106.5153 261° West 434 499 38,000  Level FlightAware ADS-B (KANK)
12:13AM 39.9241 -106.5828 261° West 434 499 38,000  Level FlightAware ADS-B (KEIK)
12:13AM 39.9138 -106.6693 261° West 434 499 38,000  Level FlightAware ADS-B (KEIK)
12:14AM 39.9033 -106.7558 261° West 434 499 38,000  Level FlightAware ADS-B
12:14AM 39.8925 -106.8448 261° West 435 501 38,000  Level FlightAware ADS-B (KMTJ)
12:15AM 39.8823 -106.9281 261° West 435 501 38,000  Level FlightAware ADS-B (KGJT)
12:15AM 39.8721 -107.0106 261° West 436 502 38,000  Level FlightAware ADS-B (KEIK)
12:16AM 39.8615 -107.0963 261° West 436 502 38,000  Level FlightAware ADS-B
12:16AM 39.8520 -107.1724 261° West 436 502 38,000  Level FlightAware ADS-B
12:17AM 39.8406 -107.2636 261° West 435 501 38,000  Level FlightAware ADS-B (KMTJ)
12:18AM 39.8286 -107.3580 261° West 435 501 38,000  Level FlightAware ADS-B (KGJT)
12:18AM 39.8180 -107.4403 261° West 435 501 38,000  Level FlightAware ADS-B (KANK)
12:19AM 39.8071 -107.5252 261° West 435 501 38,000  Level FlightAware ADS-B
12:19AM 39.7988 -107.5901 260° West 436 502 38,000  Level FlightAware ADS-B
12:20AM 39.7887 -107.6677 260° West 437 503 38,000  Level FlightAware ADS-B (KMTJ)
12:20AM 39.7829 -107.7119 261° West 438 504 38,000  Level FlightAware ADS-B (KMTJ)
12:20AM 39.7725 -107.7932 260° West 438 504 38,000  Level FlightAware ADS-B (KANK)
12:21AM 39.7630 -107.8653 260° West 436 502 38,000  Level FlightAware ADS-B
12:21AM 39.7517 -107.9501 260° West 438 504 38,000  Level FlightAware ADS-B (KMTJ)
12:22AM 39.7410 -108.0302 260° West 441 507 38,000  Level FlightAware ADS-B (KMTJ)
12:22AM 39.7299 -108.1144 260° West 444 511 38,000  Level FlightAware ADS-B (KMTJ)
12:23AM 39.7195 -108.1928 260° West 446 513 38,000  Level FlightAware ADS-B (KMTJ)
12:23AM 39.7091 -108.2706 260° West 447 514 38,000  Level FlightAware ADS-B (KGJT)
12:24AM 39.6972 -108.3581 260° West 447 514 38,000  Level FlightAware ADS-B (KMTJ)
12:25AM 39.6867 -108.4353 260° West 445 512 38,000  Level FlightAware ADS-B (KMTJ)
12:25AM 39.6757 -108.5155 260° West 443 510 38,000  Level FlightAware ADS-B (KMTJ)
12:26AM 39.6653 -108.5901 260° West 440 506 38,000  Level FlightAware ADS-B (KMTJ)
12:26AM 39.6538 -108.6728 260° West 438 504 38,000  Level FlightAware ADS-B (KMTJ)
12:27AM 39.6419 -108.7580 260° West 439 505 38,000  Level FlightAware ADS-B (KGJT)
12:27AM 39.6288 -108.8505 260° West 438 504 38,000  Level FlightAware ADS-B (KMTJ)
12:28AM 39.6166 -108.9379 260° West 438 504 38,000  Level FlightAware ADS-B (KMTJ)
12:28AM 39.6056 -109.0150 260° West 439 505 38,000  Level FlightAware ADS-B (KMTJ)
12:29AM 39.5942 -109.0953 260° West 439 505 38,000  Level FlightAware ADS-B (KMTJ)
12:29AM 39.5832 -109.1724 260° West 440 506 38,000  Level FlightAware ADS-B (KMTJ)
12:30AM 39.5708 -109.2590 260° West 443 510 38,000  Level FlightAware ADS-B (KMTJ)
12:30AM 39.5593 -109.3383 259° West 445 512 38,000  Level FlightAware ADS-B (KMTJ)
12:31AM 39.5477 -109.4183 259° West 446 513 38,000  Level FlightAware ADS-B (KMTJ)
12:31AM 39.5358 -109.4995 259° West 447 514 38,000  Level FlightAware ADS-B (KMTJ)
12:32AM 39.5247 -109.5762 259° West 449 517 38,000  Level FlightAware ADS-B (KMTJ)
12:32AM 39.5134 -109.6525 259° West 449 517 38,000  Level FlightAware ADS-B (KMTJ)
12:33AM 39.5012 -109.7344 259° West 450 518 38,000  Level FlightAware ADS-B (KMTJ)
12:33AM 39.4890 -109.8153 259° West 451 519 38,000  Level FlightAware ADS-B (KMTJ)
12:34AM 39.4770 -109.8954 259° West 452 520 38,000  Level FlightAware ADS-B (KMTJ)
12:34AM 39.4646 -109.9777 259° West 451 519 38,000  Level FlightAware ADS-B (KGJT)
12:35AM 39.4515 -110.0662 259° West 448 516 38,000  Level FlightAware ADS-B
12:35AM 39.4389 -110.1498 259° West 444 511 38,000  Level FlightAware ADS-B (KMTJ)
12:36AM 39.4262 -110.2322 259° West 445 512 38,000  Level FlightAware ADS-B (KMTJ)
12:37AM 39.4144 -110.3070 258° West 444 511 38,000  Level FlightAware ADS-B (KMTJ)
12:37AM 39.3942 -110.3895 251° West 444 511 38,000  Level FlightAware ADS-B (KMTJ)
12:38AM 39.3681 -110.4872 251° West 447 514 38,000  Level FlightAware ADS-B (KMTJ)
12:38AM 39.3465 -110.5680 251° West 448 516 38,000  Level FlightAware ADS-B (KMTJ)
12:38AM 39.3449 -110.5738 251° West 448 516 38,000  Level FlightAware ADS-B (KGJT)
12:39AM 39.3252 -110.6590 255° West 451 519 38,000  Level FlightAware ADS-B (KMTJ)
12:39AM 39.3069 -110.7443 254° West 452 520 38,000  Level FlightAware ADS-B (KMTJ)
12:40AM 39.2876 -110.8297 254° West 455 524 38,000  Level FlightAware ADS-B (KMTJ)
12:41AM 39.2690 -110.9252 259° West 449 517 38,000  Level FlightAware ADS-B (KMTJ)
12:41AM 39.2548 -111.0184 259° West 448 516 38,000  Level FlightAware ADS-B
12:42AM 39.2275 -111.1934 259° West 448 516 38,000  Level FlightAware ADS-B
12:43AM 39.2077 -111.3216 259° West 446 513 38,000  Level FlightAware ADS-B (KMTJ)
12:44AM 39.1942 -111.4069 259° West 447 514 38,000  Level FlightAware ADS-B (KMTJ)
12:44AM 39.1725 -111.5443 259° West 450 518 38,000  Level FlightAware ADS-B (KMTJ)
12:45AM 39.1574 -111.6401 259° West 450 518 38,000  Level FlightAware ADS-B (KPVU)
12:45AM 39.1561 -111.6482 259° West 450 518 38,000  Level FlightAware ADS-B
12:46AM 39.1406 -111.7463 259° West 451 519 38,000  Level FlightAware ADS-B (KPVU)
12:46AM 39.1258 -111.8378 258° West 453 521 38,000  Level FlightAware ADS-B (KPVU)
12:47AM 39.1069 -111.9539 259° West 452 520 38,000  Level FlightAware ADS-B (KBTF)
12:48AM 39.0899 -112.0582 259° West 450 518 38,000  Level FlightAware ADS-B (KBTF)
12:48AM 39.0753 -112.1481 259° West 450 518 38,000  Level FlightAware ADS-B (KBTF)
12:49AM 39.0580 -112.2537 259° West 447 514 38,000  Level FlightAware ADS-B (KBTF)
12:50AM 39.0429 -112.3437 258° West 449 517 38,000  Level FlightAware ADS-B
12:50AM 39.0288 -112.4275 258° West 449 517 38,000  Level FlightAware ADS-B (KPVU)
12:51AM 39.0113 -112.5328 258° West 448 516 38,000  Level FlightAware ADS-B (KPVU)
12:51AM 39.0025 -112.5850 259° West 446 513 38,000  Level FlightAware ADS-B (KBTF)
12:52AM 38.9860 -112.6836 259° West 447 514 38,000  Level FlightAware ADS-B (KBTF)
12:52AM 38.9699 -112.7790 258° West 451 519 38,000  Level FlightAware ADS-B (KBTF)
12:53AM 38.9501 -112.8942 258° West 451 519 38,000  Level FlightAware ADS-B (KBTF)
12:54AM 38.9321 -112.9999 258° West 452 520 38,000  Level FlightAware ADS-B (KPVU)
12:54AM 38.9187 -113.0780 258° West 452 520 38,000  Level FlightAware ADS-B (KBTF)
12:55AM 38.9052 -113.1552 258° West 452 520 38,000  Level FlightAware ADS-B (KPVU)
12:55AM 38.8869 -113.2605 257° West 451 519 38,000  Level FlightAware ADS-B (KPVU)
12:56AM 38.8685 -113.3656 257° West 449 517 38,000  Level FlightAware ADS-B (KPVU)
12:57AM 38.8515 -113.4626 257° West 446 513 38,000  Level FlightAware ADS-B (KPVU)
12:57AM 38.8325 -113.5696 257° West 444 511 38,000  Level FlightAware ADS-B (KPVU)
12:58AM 38.8127 -113.6808 257° West 443 510 38,000  Level FlightAware ADS-B (KBTF)
12:59AM 38.7961 -113.7742 257° West 442 509 38,000  Level FlightAware ADS-B (KPVU)
12:59AM 38.7785 -113.8724 257° West 440 506 38,000  Level FlightAware ADS-B (KPVU)
01:00AM 38.7586 -113.9820 257° West 440 506 38,000  Level FlightAware ADS-B (KPVU)
01:01AM 38.7405 -114.0813 257° West 440 506 38,000  Level FlightAware ADS-B (KPVU)
01:01AM 38.7216 -114.1844 257° West 440 506 38,000  Level FlightAware ADS-B (KPVU)
01:02AM 38.7033 -114.2841 257° West 441 507 38,000  Level FlightAware ADS-B (KPVU)
01:03AM 38.6842 -114.3872 257° West 442 509 38,000  Level FlightAware ADS-B (KPVU)
01:03AM 38.6657 -114.4869 257° West 442 509 38,000  Level FlightAware ADS-B (KPVU)
01:04AM 38.6467 -114.5893 257° West 442 509 38,000  Level FlightAware ADS-B (KPVU)
01:05AM 38.6103 -114.7822 257° West 439 505 38,000  Level Salt Lake Center
01:06AM 38.5822 -114.9344 257° West 440 506 38,000  Level Salt Lake Center
01:08AM 38.5531 -115.0861 256° West 440 506 38,000  Level Salt Lake Center
01:09AM 38.5236 -115.2367 256° West 440 506 38,000  Level Salt Lake Center
01:10AM 38.4914 -115.4067 256° West 440 506 38,000  Level Salt Lake Center
01:15AM 38.3162 -116.2823 257° West 440 506 38,000  Level FlightAware ADS-B (KVGT)
01:16AM 38.2936 -116.3938 257° West 440 506 38,000  Level FlightAware ADS-B (KVGT)
01:18AM 38.2379 -116.6649 255° West 441 507 38,000  Level FlightAware ADS-B (KVGT)
01:19AM 38.2036 -116.8305 255° West 441 507 38,000  Level FlightAware ADS-B (KVGT)
01:20AM 38.1805 -116.9411 255° West 441 507 38,000  Level FlightAware ADS-B (KVGT)
01:21AM 38.1424 -117.1216 255° West 441 507 38,000  Level FlightAware ADS-B (KVGT)
01:22AM 38.1037 -117.3038 255° West 442 509 38,000  Level FlightAware ADS-B (KVGT)
01:23AM 38.0849 -117.3922 255° West 442 509 38,000  Level FlightAware ADS-B (KVGT)
01:24AM 38.0593 -117.5113 255° West 444 511 38,000  Level FlightAware ADS-B (KVGT)
01:25AM 38.0331 -117.7009 263° West 449 517 38,000  Level FlightAware ADS-B (KVGT)
01:25AM 38.0230 -117.7934 263° West 450 518 38,000  Level FlightAware ADS-B (KVGT)
01:26AM 38.0121 -117.8915 262° West 453 521 38,000  Level FlightAware ADS-B (KVGT)
01:31AM 37.9205 -118.6856 261° West 456 525 38,000  Level FlightAware ADS-B (KAUN)
01:32AM 37.9080 -118.7892 261° West 455 524 38,000  Level FlightAware ADS-B (KAUN)
01:32AM 37.8950 -118.8981 261° West 454 522 38,000  Level FlightAware ADS-B (KAUN)
01:33AM 37.8858 -118.9736 261° West 454 522 38,000  Level FlightAware ADS-B (KAHC)
01:33AM 37.8759 -119.0547 261° West 455 524 38,000  Level FlightAware ADS-B (KAUN)
01:34AM 37.8633 -119.1578 261° West 456 525 38,000  Level FlightAware ADS-B (KAHC)
01:35AM 37.8544 -119.2301 261° West 456 525 38,000  Level FlightAware ADS-B (KAHC)
01:35AM 37.8369 -119.3705 261° West 456 525 38,000 -300 Level FlightAware ADS-B (KAUN)
01:36AM 37.8238 -119.4748 261° West 457 526 37,600 -840 Descending FlightAware ADS-B (KAUN)
01:37AM 37.8101 -119.5828 261° West 463 533 36,900 -960 Descending FlightAware ADS-B (KAUN)
01:37AM 37.7982 -119.6782 261° West 465 535 36,400 -960 Descending FlightAware ADS-B (KAHC)
01:38AM 37.7833 -119.7927 261° West 464 534 35,700 -1,020 Descending FlightAware ADS-B (KAUN)
01:39AM 37.7696 -119.9005 261° West 457 526 35,000 -1,020 Descending FlightAware ADS-B (KAUN)
01:39AM 37.7561 -120.0040 261° West 462 532 34,400 -1,020 Descending FlightAware ADS-B (KAUN)
01:40AM 37.7415 -120.1138 261° West 472 543 33,700 -1,140 Descending FlightAware ADS-B (KAUN)
01:41AM 37.7284 -120.2146 261° West 466 536 32,900 -2,160 Descending FlightAware ADS-B (KAUN)
01:42AM 37.7025 -120.4082 260° West 454 522 29,800 -2,580 Descending FlightAware ADS-B (KSCK)
01:43AM 37.6941 -120.4699 260° West 445 512 28,100 -2,520 Descending FlightAware ADS-B (KSCK)
01:43AM 37.6745 -120.6161 260° West 436 502 26,500 -2,400 Descending FlightAware ADS-B (KSCK)
01:44AM 37.6609 -120.7152 260° West 425 489 24,900 -2,280 Descending FlightAware ADS-B (KSCK)
01:45AM 37.6476 -120.8112 260° West 414 476 23,500 -2,280 Descending FlightAware ADS-B (KSCK)
01:45AM 37.6345 -120.9072 260° West 403 464 21,900 -2,280 Descending FlightAware ADS-B (KSCK)
01:46AM 37.6227 -120.9951 262° West 390 449 20,500 -2,160 Descending FlightAware ADS-B (KSCK)
01:46AM 37.6203 -121.0166 260° West 413 475 20,200 -3,780 Descending FlightAware ADS-B (KPAO)
01:46AM 37.6186 -121.0324 263° West 384 442 19,500 -2,160 Descending FlightAware ADS-B (KPAO)
01:47AM 37.6084 -121.1284 262° West 374 430 18,400 -1,860 Descending FlightAware ADS-B (KSCK)
01:48AM 37.5992 -121.2086 262° West 366 421 16,900 -2,220 Descending FlightAware ADS-B (KSCK)
01:48AM 37.5937 -121.2570 262° West 363 418 16,200 -2,340 Descending FlightAware ADS-B
01:48AM 37.5888 -121.2890 259° West 361 415 15,500 -2,040 Descending FlightAware ADS-B
01:48AM 37.5839 -121.3188 258° West 354 407 15,100 -1,620 Descending FlightAware ADS-B
01:49AM 37.5786 -121.3500 258° West 350 403 14,700 -2,160 Descending FlightAware ADS-B
01:49AM 37.5726 -121.3860 258° West 346 398 13,900 -2,220 Descending FlightAware ADS-B (KPAO)
01:49AM 37.5686 -121.4100 258° West 347 399 13,600 -2,100 Descending FlightAware ADS-B
01:50AM 37.5612 -121.4550 258° West 343 395 12,800 -1,560 Descending FlightAware ADS-B (KSCK)
01:50AM 37.5588 -121.4700 258° West 338 389 12,800 -540 Level FlightAware ADS-B
01:50AM 37.5536 -121.5011 258° West 317 365 12,500 -840 Descending FlightAware ADS-B
01:50AM 37.5496 -121.5250 258° West 315 362 12,400 -1,260 Descending FlightAware ADS-B
01:51AM 37.5407 -121.5790 258° West 305 351 11,800 -1,320 Descending FlightAware ADS-B
01:51AM 37.5340 -121.6191 258° West 299 344 11,200 -1,380 Descending FlightAware ADS-B
01:51AM 37.5319 -121.6320 258° West 299 344 11,100 -1,440 Descending FlightAware ADS-B
01:52AM 37.5260 -121.6670 258° West 297 342 10,600 -1,560 Descending FlightAware ADS-B
01:52AM 37.5233 -121.6830 258° West 296 341 10,300 -1,500 Descending FlightAware ADS-B (KPAO)
01:52AM 37.5192 -121.7070 258° West 295 339 10,000 -1,800 Descending FlightAware ADS-B
01:52AM 37.5187 -121.7103 258° West 295 339 9,800 -1,680 Descending FlightAware ADS-B (KPAO)
01:52AM 37.5140 -121.7380 258° West 295 339 9,500 -1,380 Descending FlightAware ADS-B
01:52AM 37.5130 -121.7437 258° West 294 338 9,300 -1,500 Descending FlightAware ADS-B (KPAO)
01:52AM 37.5096 -121.7640 258° West 294 338 9,100 -1,440 Descending FlightAware ADS-B
01:53AM 37.5071 -121.7782 258° West 294 338 8,800 -1,620 Descending FlightAware ADS-B (KPAO)
01:53AM 37.5053 -121.7890 258° West 294 338 8,700 -1,680 Descending FlightAware ADS-B
01:53AM 37.5010 -121.8150 258° West 293 337 8,300 -1,200 Descending FlightAware ADS-B
01:53AM 37.4969 -121.8400 258° West 289 333 8,100 -840 Descending FlightAware ADS-B
01:53AM 37.4951 -121.8510 258° West 288 331 8,000 -540 Descending FlightAware ADS-B (KPAO)
01:53AM 37.4935 -121.8610 259° West 285 328 8,000 -780 Level FlightAware ADS-B
01:54AM 37.4918 -121.8770 264° West 281 323 7,800 -1,440 Descending FlightAware ADS-B
01:54AM 37.4915 -121.8820 266° West 280 322 7,700 -1,200 Descending FlightAware ADS-B (KPAO)
01:54AM 37.4914 -121.8840 267° West 279 321 7,700 -900 Level FlightAware ADS-B
01:54AM 37.4913 -121.8930 270° West 278 320 7,600 -1,680 Descending FlightAware ADS-B
01:54AM 37.4919 -121.9143 272° West 280 322 7,200 -1,500 Descending FlightAware ADS-B (KPAO)
01:54AM 37.4920 -121.9180 272° West 280 322 7,200 -1,680 Level FlightAware ADS-B
01:54AM 37.4928 -121.9440 272° West 283 326 6,700 -2,160 Descending FlightAware ADS-B
01:54AM 37.4929 -121.9464 272° West 284 327 6,600 -1,620 Descending FlightAware ADS-B (KPAO)
01:55AM 37.4935 -121.9670 272° West 286 329 6,300 -1,440 Descending FlightAware ADS-B
01:55AM 37.4940 -121.9750 275° West 287 330 6,200 -2,280 Descending FlightAware ADS-B
01:55AM 37.4949 -121.9822 279° West 287 330 6,000 -2,400 Descending FlightAware ADS-B (KPAO)
01:55AM 37.4952 -121.9840 280° West 286 329 6,000 -1,200 Level FlightAware ADS-B
01:55AM 37.4961 -121.9890 282° West 287 330 5,900 -1,500 Descending FlightAware ADS-B
01:55AM 37.4977 -121.9960 286° West 285 328 5,800 -1,860 Descending FlightAware ADS-B
01:55AM 37.5019 -122.0100 291° West 284 327 5,500 -2,220 Descending FlightAware ADS-B
01:55AM 37.5029 -122.0134 292° West 283 326 5,400 -1,140 Descending FlightAware ADS-B (KPAO)
01:55AM 37.5094 -122.0330 292° West 275 316 5,200 -900 Descending FlightAware ADS-B
01:55AM 37.5125 -122.0433 292° West 266 306 5,100 -1,140 Descending FlightAware ADS-B (KPAO)
01:56AM 37.5168 -122.0560 292° West 258 297 4,900 -1,320 Descending FlightAware ADS-B
01:56AM 37.5184 -122.0617 292° West 244 281 4,700 -1,080 Descending FlightAware ADS-B (KPAO)
01:56AM 37.5239 -122.0790 292° West 239 275 4,600 -1,200 Descending FlightAware ADS-B
01:56AM 37.5272 -122.0888 293° West 234 269 4,300 -1,200 Descending FlightAware ADS-B (KPAO)
01:56AM 37.5305 -122.0990 293° West 234 269 4,300 -1,380 Level FlightAware ADS-B
01:56AM 37.5371 -122.1180 293° West 232 267 3,900 -1,440 Descending FlightAware ADS-B
01:56AM 37.5388 -122.1237 293° West 230 265 3,800 -1,320 Descending FlightAware ADS-B
01:57AM 37.5425 -122.1350 292° West 229 264 3,600 -1,380 Descending FlightAware ADS-B
01:57AM 37.5460 -122.1459 292° West 226 260 3,400 -1,320 Descending FlightAware ADS-B (KPAO)
01:57AM 37.5480 -122.1520 292° West 225 259 3,300 -1,440 Descending FlightAware ADS-B
01:57AM 37.5513 -122.1630 292° West 223 257 3,100 -1,200 Descending FlightAware ADS-B
01:57AM 37.5538 -122.1704 292° West 222 255 3,000 -1,200 Descending FlightAware ADS-B (KPAO)
01:57AM 37.5570 -122.1810 292° West 219 252 2,800 -1,440 Descending FlightAware ADS-B
01:57AM 37.5598 -122.1889 293° West 216 249 2,600 -780 Descending FlightAware ADS-B (KPAO)
01:57AM 37.5629 -122.1980 292° West 215 247 2,600 -840 Level FlightAware ADS-B
01:58AM 37.5685 -122.2160 291° West 212 244 2,300 -1,200 Descending FlightAware ADS-B
01:58AM 37.5737 -122.2330 291° West 206 237 2,000 -1,140 Descending FlightAware ADS-B
01:58AM 37.5758 -122.2410 288° West 199 229 1,900 -600 Descending FlightAware ADS-B
01:58AM 37.5766 -122.2440 285° West 196 226 1,900 -1,020 Level FlightAware ADS-B
01:58AM 37.5783 -122.2540 284° West 187 215 1,700 -1,200 Descending FlightAware ADS-B
01:58AM 37.5809 -122.2660 286° West 179 206 1,500 -840 Descending FlightAware ADS-B
01:59AM 37.5832 -122.2760 285° West 171 197 1,400 -840 Descending FlightAware ADS-B
01:59AM 37.5855 -122.2880 285° West 159 183 1,200 -840 Descending FlightAware ADS-B
01:59AM 37.5862 -122.2900 287° West 156 180 1,200 -900 Level FlightAware ADS-B
01:59AM 37.5869 -122.2930 290° West 154 177 1,100 -1,380 Descending FlightAware ADS-B
01:59AM 37.5884 -122.2970 294° West 151 174 1,000 -720 Descending FlightAware ADS-B
01:59AM 37.5924 -122.3070 297° West 145 167 900 -900 Descending FlightAware ADS-B
01:59AM 37.5930 -122.3083 291° West 212 244 800 -840 Descending FlightAware ADS-B (KPAO)
01:59AM 37.5971 -122.3180 297° West 145 167 700 -720 Descending FlightAware ADS-B
02:00AM 37.6009 -122.3270 299° West 148 170 500 -900 Descending FlightAware ADS-B
02:00AM 37.6039 -122.3340 298° West 149 171 400 -720 Descending FlightAware ADS-B
02:00AM 37.6064 -122.3400 297° West 148 170 300 -780 Descending FlightAware ADS-B
02:00AM 37.6112 -122.3520 298° West 146 168 100 -780 Descending FlightAware ADS-B
02:08AM 37.6167 -122.3667 322° Northwest  Level FlightAware Approximate
02:09AM 37.6188 -122.3754 322° Northwest  Level Estimated